Time;durP1;ratioP1;P1;durP2;ratioP2;P2;SDS_P1;SDS_P2;PMS_P1;PMS_P2;Temp;Humidity;BMP_temperature;BMP_pressure;BME280_temperature;BME280_humidity;BME280_pressure;Samples;Min_cycle;Max_cycle;Signal;HPM_P1;HPM_P2
2022/06/30 00:02:18;;;;;;;45.70;25.73;;;18.60;99.90;;;;;;4955294;28;20039;-75
2022/06/30 00:04:44;;;;;;;44.10;24.88;;;18.60;99.90;;;;;;4966464;28;20046;-75
2022/06/30 00:07:09;;;;;;;47.10;25.92;;;18.60;99.90;;;;;;4960172;28;20109;-74
2022/06/30 00:09:35;;;;;;;46.58;24.73;;;18.50;99.90;;;;;;4960744;28;20047;-75
2022/06/30 00:12:00;;;;;;;54.80;25.92;;;18.50;99.90;;;;;;4963004;28;20054;-75
2022/06/30 00:14:26;;;;;;;46.30;25.27;;;18.50;99.90;;;;;;4961716;28;20077;-74
2022/06/30 00:16:52;;;;;;;52.60;24.83;;;18.50;99.90;;;;;;4945970;28;20077;-74
2022/06/30 00:19:17;;;;;;;45.70;24.95;;;18.40;99.90;;;;;;4957060;28;20088;-75
2022/06/30 00:21:43;;;;;;;45.08;24.60;;;18.40;99.90;;;;;;4961809;28;20031;-75
2022/06/30 00:24:08;;;;;;;44.67;24.20;;;18.40;99.90;;;;;;4945910;28;20027;-75
2022/06/30 00:26:34;;;;;;;44.67;24.25;;;18.40;99.90;;;;;;4966360;28;20169;-75
2022/06/30 00:29:00;;;;;;;44.45;23.33;;;18.40;99.90;;;;;;4961434;28;20038;-74
2022/06/30 00:31:25;;;;;;;42.97;23.02;;;18.40;99.90;;;;;;4968289;28;20422;-74
2022/06/30 00:33:51;;;;;;;45.00;23.00;;;18.40;99.90;;;;;;4951350;28;20045;-73
2022/06/30 00:36:17;;;;;;;41.50;22.17;;;18.30;99.90;;;;;;4968838;28;20035;-74
2022/06/30 00:38:42;;;;;;;42.92;22.20;;;18.30;99.90;;;;;;4953052;28;20042;-74
2022/06/30 00:41:08;;;;;;;41.55;22.70;;;18.30;99.90;;;;;;4962453;28;20738;-74
2022/06/30 00:43:47;;;;;;;42.28;21.55;;;18.30;99.90;;;;;;4971154;28;20155;-74
2022/06/30 00:46:14;;;;;;;42.10;21.13;;;18.30;99.90;;;;;;4957698;28;20043;-75
2022/06/30 00:48:41;;;;;;;40.95;21.67;;;18.30;99.90;;;;;;4958404;28;20046;-75
2022/06/30 00:51:08;;;;;;;40.35;21.42;;;18.20;99.90;;;;;;4959123;28;20038;-75
2022/06/30 00:53:38;;;;;;;38.92;20.05;;;18.20;99.90;;;;;;4962607;28;20325;-75
2022/06/30 00:56:06;;;;;;;37.72;19.92;;;18.20;99.90;;;;;;4961775;28;20412;-75
2022/06/30 00:58:37;;;;;;;40.80;21.20;;;18.10;99.90;;;;;;4984570;28;20426;-76
2022/06/30 01:01:05;;;;;;;37.10;20.27;;;18.10;99.90;;;;;;4988148;28;20070;-75
2022/06/30 01:03:32;;;;;;;36.58;20.05;;;18.10;99.90;;;;;;4978670;28;20077;-74
2022/06/30 01:06:03;;;;;;;40.00;20.80;;;18.00;99.90;;;;;;4996471;28;20134;-74
2022/06/30 01:08:30;;;;;;;40.08;21.83;;;18.00;99.90;;;;;;4967529;28;20077;-74
2022/06/30 01:13:41;;;;;;;39.42;20.08;;;17.90;99.90;;;;;;4966383;28;20085;-75
2022/06/30 01:16:06;;;;;;;37.10;19.45;;;17.90;99.90;;;;;;4976646;28;20034;-74
2022/06/30 01:18:33;;;;;;;32.47;19.75;;;17.90;99.90;;;;;;4978243;28;20042;-75
2022/06/30 01:21:00;;;;;;;35.72;19.35;;;17.80;99.90;;;;;;4949121;28;20046;-74
2022/06/30 01:23:25;;;;;;;33.55;19.63;;;17.80;99.90;;;;;;4964051;28;20062;-74
2022/06/30 01:25:51;;;;;;;33.38;19.52;;;17.80;99.90;;;;;;4954966;28;20038;-76
2022/06/30 01:28:18;;;;;;;39.00;20.00;;;17.80;99.90;;;;;;4961593;28;20034;-75
2022/06/30 01:30:44;;;;;;;35.50;19.45;;;17.80;99.90;;;;;;4962679;28;20048;-75
2022/06/30 01:33:09;;;;;;;33.58;18.90;;;17.70;99.90;;;;;;4958420;28;20561;-75
2022/06/30 01:35:35;;;;;;;32.97;18.10;;;17.70;99.90;;;;;;4954896;28;20157;-75
2022/06/30 01:38:01;;;;;;;30.48;17.58;;;17.70;99.90;;;;;;4966210;28;20039;-75
2022/06/30 01:40:30;;;;;;;32.80;18.70;;;17.60;99.90;;;;;;4957643;28;20054;-75
2022/06/30 01:43:30;;;;;;;34.30;19.15;;;17.60;99.90;;;;;;4989666;28;20329;-75
2022/06/30 01:45:56;;;;;;;30.70;17.90;;;17.60;99.90;;;;;;4971814;28;20038;-74
2022/06/30 01:48:21;;;;;;;35.33;18.33;;;17.60;99.90;;;;;;4961472;28;20090;-74
2022/06/30 01:50:47;;;;;;;36.15;19.20;;;17.60;99.90;;;;;;4970143;28;20405;-74
2022/06/30 01:53:12;;;;;;;36.95;19.08;;;17.60;99.90;;;;;;4976467;28;20046;-74
2022/06/30 01:55:38;;;;;;;31.13;18.08;;;17.60;99.90;;;;;;4965017;28;20497;-74
2022/06/30 01:58:04;;;;;;;32.85;18.00;;;17.60;99.90;;;;;;4965726;28;21183;-75
2022/06/30 02:00:31;;;;;;;34.15;18.02;;;17.50;99.90;;;;;;4962730;28;20039;-73
2022/06/30 02:02:57;;;;;;;34.03;18.40;;;17.50;99.90;;;;;;4969158;28;20043;-75
2022/06/30 02:05:23;;;;;;;36.03;19.02;;;17.50;99.90;;;;;;4967309;28;20034;-75
2022/06/30 02:07:50;;;;;;;32.22;17.65;;;17.50;99.90;;;;;;4960314;28;20048;-75
2022/06/30 02:10:19;;;;;;;34.50;18.50;;;17.50;99.90;;;;;;4967949;28;20481;-76
2022/06/30 02:12:45;;;;;;;32.47;17.45;;;17.40;99.90;;;;;;4979741;28;20050;-76
2022/06/30 02:15:15;;;;;;;33.53;18.25;;;17.40;99.90;;;;;;4962462;28;20069;-77
2022/06/30 02:17:41;;;;;;;35.20;18.48;;;17.40;99.90;;;;;;4985835;28;20085;-74
2022/06/30 02:20:10;;;;;;;34.55;18.88;;;17.40;99.90;;;;;;4984023;28;20121;-75
2022/06/30 02:22:37;;;;;;;33.78;19.15;;;17.40;99.90;;;;;;4962715;28;20445;-75
2022/06/30 02:25:04;;;;;;;35.50;18.88;;;17.40;99.90;;;;;;4975620;28;20050;-75
2022/06/30 02:27:30;;;;;;;35.03;18.67;;;17.30;99.90;;;;;;4988030;28;20039;-75
2022/06/30 02:29:55;;;;;;;36.50;19.35;;;17.30;99.90;;;;;;4968316;28;20073;-75
2022/06/30 02:32:22;;;;;;;34.72;18.77;;;17.30;99.90;;;;;;4957851;28;20332;-74
2022/06/30 02:34:49;;;;;;;38.67;19.70;;;17.20;99.90;;;;;;4956086;28;20034;-75
2022/06/30 02:37:14;;;;;;;37.58;19.58;;;17.20;99.90;;;;;;4957131;28;20039;-76
2022/06/30 02:39:40;;;;;;;41.90;20.30;;;17.20;99.90;;;;;;4965322;28;20038;-75
2022/06/30 02:42:06;;;;;;;36.50;20.25;;;17.20;99.90;;;;;;4960316;28;20071;-75
2022/06/30 02:44:31;;;;;;;37.13;18.88;;;17.20;99.90;;;;;;4958748;28;20042;-75
2022/06/30 02:46:57;;;;;;;39.40;20.25;;;17.10;99.90;;;;;;4964286;28;20180;-76
2022/06/30 02:49:23;;;;;;;37.20;20.58;;;17.10;99.90;;;;;;4946807;28;20046;-76
2022/06/30 02:51:49;;;;;;;36.70;20.42;;;17.10;99.90;;;;;;4963965;28;20073;-75
2022/06/30 02:54:15;;;;;;;40.80;20.83;;;17.10;99.90;;;;;;4961423;28;20049;-76
2022/06/30 02:56:41;;;;;;;36.17;20.27;;;17.10;99.90;;;;;;4959478;28;20058;-75
2022/06/30 02:59:08;;;;;;;40.25;21.55;;;17.00;99.90;;;;;;4959254;28;20034;-75
2022/06/30 03:01:34;;;;;;;39.42;21.45;;;17.00;99.90;;;;;;4956504;28;20038;-74
2022/06/30 03:04:02;;;;;;;42.35;22.65;;;17.00;99.90;;;;;;4954205;28;20036;-74
2022/06/30 03:06:32;;;;;;;42.67;22.63;;;17.00;99.90;;;;;;4957153;28;20409;-75
2022/06/30 03:08:59;;;;;;;47.53;24.50;;;16.90;99.90;;;;;;4970399;28;20497;-73
2022/06/30 03:11:25;;;;;;;41.97;23.20;;;17.00;99.90;;;;;;4968073;28;20034;-75
2022/06/30 03:13:51;;;;;;;44.42;23.02;;;17.00;99.90;;;;;;4945243;28;20038;-74
2022/06/30 03:16:17;;;;;;;43.05;23.60;;;17.00;99.90;;;;;;4958793;28;20035;-73
2022/06/30 03:18:43;;;;;;;45.42;23.90;;;17.00;99.90;;;;;;4962424;28;20125;-74
2022/06/30 03:21:09;;;;;;;47.22;23.05;;;16.90;99.90;;;;;;4968903;28;20043;-74
2022/06/30 03:23:35;;;;;;;45.25;23.35;;;16.90;99.90;;;;;;4960889;28;20557;-75
2022/06/30 03:26:01;;;;;;;44.65;22.20;;;16.90;99.90;;;;;;4956544;28;20039;-74
2022/06/30 03:28:27;;;;;;;46.88;23.17;;;16.90;99.90;;;;;;4956622;28;20210;-74
2022/06/30 03:30:53;;;;;;;41.13;21.60;;;16.90;99.90;;;;;;4951892;28;20100;-74
2022/06/30 03:33:19;;;;;;;47.08;23.85;;;16.80;99.90;;;;;;4955551;28;20286;-74
2022/06/30 03:35:45;;;;;;;40.70;23.23;;;16.80;99.90;;;;;;4956313;28;20051;-75
2022/06/30 03:38:12;;;;;;;48.22;21.70;;;16.80;99.90;;;;;;4941402;28;20401;-74
2022/06/30 03:40:38;;;;;;;43.30;22.08;;;16.70;99.90;;;;;;4954412;28;20046;-74
2022/06/30 03:43:04;;;;;;;38.10;21.63;;;16.70;99.90;;;;;;4950913;28;20275;-74
2022/06/30 03:45:29;;;;;;;41.83;22.70;;;16.70;99.90;;;;;;4964438;28;20050;-74
2022/06/30 03:47:55;;;;;;;37.70;21.13;;;16.70;99.90;;;;;;4958908;28;20227;-75
2022/06/30 03:50:21;;;;;;;43.22;22.15;;;16.70;99.90;;;;;;4961953;28;20070;-74
2022/06/30 03:52:47;;;;;;;36.20;20.70;;;16.70;99.90;;;;;;4961969;28;20046;-75
2022/06/30 03:55:13;;;;;;;40.38;21.42;;;16.70;99.90;;;;;;4957534;28;20046;-75
2022/06/30 03:57:39;;;;;;;39.33;20.67;;;16.70;99.90;;;;;;4954872;28;20044;-75
2022/06/30 04:00:06;;;;;;;39.42;21.63;;;16.80;99.90;;;;;;4957767;28;20054;-74
2022/06/30 04:02:32;;;;;;;37.35;20.90;;;16.80;99.90;;;;;;4977836;28;20397;-75
2022/06/30 04:04:58;;;;;;;37.83;20.52;;;16.80;99.90;;;;;;4957640;28;20121;-74
2022/06/30 04:07:23;;;;;;;38.40;19.98;;;16.90;99.90;;;;;;4960482;28;20477;-75
2022/06/30 04:09:49;;;;;;;37.72;20.90;;;16.90;99.90;;;;;;4963432;28;20121;-75
2022/06/30 04:12:14;;;;;;;45.92;21.05;;;16.90;99.90;;;;;;4959614;28;20042;-75
2022/06/30 04:14:41;;;;;;;34.72;19.92;;;16.90;99.90;;;;;;4960758;28;20037;-75
2022/06/30 04:17:06;;;;;;;39.70;20.83;;;17.00;99.90;;;;;;4953504;28;20041;-75
2022/06/30 04:19:32;;;;;;;36.70;19.98;;;17.00;99.90;;;;;;4944411;28;20490;-75
2022/06/30 04:21:57;;;;;;;35.58;21.17;;;17.00;99.90;;;;;;4957319;28;20037;-75
2022/06/30 04:24:23;;;;;;;40.90;21.67;;;17.00;99.90;;;;;;4967757;28;20031;-75
2022/06/30 04:26:49;;;;;;;39.92;19.77;;;17.00;99.90;;;;;;4956713;28;20039;-75
2022/06/30 04:29:14;;;;;;;34.28;19.77;;;17.00;99.90;;;;;;4951285;28;20109;-75
2022/06/30 04:34:25;;;;;;;39.13;20.05;;;17.10;99.90;;;;;;4953950;28;20045;-74
2022/06/30 04:36:51;;;;;;;36.53;19.00;;;17.10;99.90;;;;;;4960601;28;20397;-74
2022/06/30 04:39:16;;;;;;;41.67;19.10;;;17.10;99.90;;;;;;4961662;28;20047;-74
2022/06/30 04:41:42;;;;;;;37.60;19.80;;;17.10;99.90;;;;;;4959573;28;20086;-73
2022/06/30 04:44:07;;;;;;;48.28;20.90;;;17.20;99.90;;;;;;4957268;28;20050;-75
2022/06/30 04:46:33;;;;;;;40.67;20.35;;;17.40;99.90;;;;;;4943465;28;20038;-73
2022/06/30 04:48:59;;;;;;;36.60;19.50;;;17.40;99.90;;;;;;4960553;28;20145;-73
2022/06/30 04:51:25;;;;;;;38.63;20.50;;;17.50;99.90;;;;;;4961556;28;20201;-75
2022/06/30 04:53:52;;;;;;;36.78;20.70;;;17.60;99.90;;;;;;4962239;28;20132;-74
2022/06/30 04:56:17;;;;;;;33.78;19.83;;;17.70;99.90;;;;;;4968728;28;20299;-74
2022/06/30 04:58:44;;;;;;;37.85;19.40;;;17.80;99.90;;;;;;4958900;28;20066;-74
2022/06/30 05:01:10;;;;;;;32.72;18.27;;;17.90;99.90;;;;;;4943823;28;20129;-74
2022/06/30 05:03:36;;;;;;;35.17;19.30;;;18.00;99.90;;;;;;4958352;28;20043;-74
2022/06/30 05:06:04;;;;;;;35.15;18.95;;;18.10;99.90;;;;;;4979045;28;20042;-74
2022/06/30 05:08:30;;;;;;;35.78;19.55;;;18.20;99.90;;;;;;4961109;28;20081;-75
2022/06/30 05:10:56;;;;;;;34.55;19.25;;;18.20;99.90;;;;;;4953642;28;20272;-74
2022/06/30 05:13:22;;;;;;;35.10;19.08;;;18.40;99.90;;;;;;4957270;28;20047;-74
2022/06/30 05:15:47;;;;;;;34.33;20.02;;;18.40;99.90;;;;;;4959772;28;20035;-74
2022/06/30 05:18:13;;;;;;;35.90;19.55;;;18.60;99.90;;;;;;4962444;28;20043;-73
2022/06/30 05:20:39;;;;;;;35.17;19.80;;;18.60;99.90;;;;;;4960233;28;20468;-74
2022/06/30 05:23:05;;;;;;;39.55;20.13;;;18.70;99.90;;;;;;4955273;28;20118;-75
2022/06/30 05:28:15;;;;;;;34.53;19.80;;;19.00;99.90;;;;;;4966660;28;20112;-74
2022/06/30 05:30:41;;;;;;;33.90;19.65;;;19.10;99.90;;;;;;4966445;28;20035;-74
2022/06/30 05:33:08;;;;;;;34.03;19.45;;;19.20;99.90;;;;;;4957737;28;20039;-73
2022/06/30 05:35:34;;;;;;;39.40;19.77;;;19.30;99.90;;;;;;4960990;28;20093;-77
2022/06/30 05:38:00;;;;;;;33.55;18.92;;;19.50;99.90;;;;;;4953445;28;20042;-74
2022/06/30 05:40:26;;;;;;;39.33;19.58;;;19.50;99.90;;;;;;4954854;28;20035;-75
2022/06/30 05:42:52;;;;;;;36.25;20.08;;;19.60;99.90;;;;;;4955658;28;20030;-75
2022/06/30 05:45:18;;;;;;;34.38;19.42;;;19.70;99.90;;;;;;4960600;28;20100;-74
2022/06/30 05:47:47;;;;;;;40.50;19.65;;;19.80;99.90;;;;;;4959524;28;20529;-75
2022/06/30 05:50:14;;;;;;;36.90;19.75;;;20.00;99.90;;;;;;4958780;28;20057;-74
2022/06/30 05:52:41;;;;;;;34.67;19.83;;;20.10;99.90;;;;;;4962020;28;20405;-75
2022/06/30 05:55:07;;;;;;;37.80;20.60;;;20.10;99.90;;;;;;4953375;28;20548;-73
2022/06/30 05:57:32;;;;;;;35.88;20.88;;;20.30;99.90;;;;;;4957788;28;20487;-75
2022/06/30 05:59:58;;;;;;;34.05;20.10;;;20.40;99.90;;;;;;4953741;28;20066;-73
2022/06/30 06:02:23;;;;;;;37.53;21.40;;;20.50;99.90;;;;;;4958417;28;20474;-75
2022/06/30 06:04:49;;;;;;;38.30;20.92;;;20.50;99.90;;;;;;4956870;28;20070;-75
2022/06/30 06:07:14;;;;;;;35.97;21.23;;;20.60;99.90;;;;;;4954295;28;20035;-75
2022/06/30 06:09:40;;;;;;;36.97;20.95;;;20.70;99.90;;;;;;4954912;28;20101;-75
2022/06/30 06:12:06;;;;;;;38.30;21.08;;;20.90;99.90;;;;;;4956409;28;20070;-74
2022/06/30 06:14:31;;;;;;;40.67;21.88;;;21.00;99.90;;;;;;4971038;28;20042;-74
2022/06/30 06:16:57;;;;;;;40.92;23.15;;;21.00;99.90;;;;;;4949454;28;20450;-74
2022/06/30 06:19:23;;;;;;;37.10;21.95;;;21.20;99.90;;;;;;4950636;28;20035;-74
2022/06/30 06:21:49;;;;;;;41.20;22.95;;;21.20;99.90;;;;;;4958753;28;20057;-74
2022/06/30 06:24:15;;;;;;;39.58;21.65;;;21.40;99.90;;;;;;4954649;28;20121;-74
2022/06/30 06:26:41;;;;;;;40.95;22.42;;;21.40;99.90;;;;;;4948928;28;20098;-74
2022/06/30 06:29:07;;;;;;;44.72;22.75;;;21.60;99.90;;;;;;4952678;28;20508;-73
2022/06/30 06:31:38;;;;;;;43.30;22.67;;;21.60;99.90;;;;;;4955813;28;20050;-74
2022/06/30 06:34:05;;;;;;;42.58;23.73;;;21.70;99.90;;;;;;4960295;28;20042;-74
2022/06/30 06:36:31;;;;;;;41.75;23.02;;;21.90;99.90;;;;;;4948894;28;20138;-74
2022/06/30 06:39:00;;;;;;;46.90;23.27;;;22.00;99.90;;;;;;4952656;28;20046;-74
2022/06/30 06:41:26;;;;;;;45.85;24.92;;;22.10;99.90;;;;;;4960408;28;20481;-75
2022/06/30 06:43:52;;;;;;;40.75;23.60;;;22.10;99.90;;;;;;4939143;28;20042;-74
2022/06/30 06:46:18;;;;;;;39.05;23.15;;;22.20;99.90;;;;;;4939832;28;20124;-75
2022/06/30 06:48:44;;;;;;;44.08;23.80;;;22.30;99.90;;;;;;4970099;28;20086;-74
2022/06/30 06:51:10;;;;;;;42.13;24.90;;;22.40;99.90;;;;;;4970659;28;20050;-74
2022/06/30 06:53:37;;;;;;;49.10;24.02;;;22.50;99.90;;;;;;4970545;28;20047;-75
2022/06/30 06:56:04;;;;;;;45.60;23.70;;;22.50;99.90;;;;;;4969469;28;20054;-75
2022/06/30 06:58:30;;;;;;;49.47;25.63;;;22.60;99.90;;;;;;4963904;28;20042;-75
2022/06/30 07:00:56;;;;;;;48.97;26.27;;;22.60;99.90;;;;;;4986484;28;20126;-75
2022/06/30 07:03:22;;;;;;;49.92;26.58;;;22.70;99.90;;;;;;4954509;28;20047;-74
2022/06/30 07:05:48;;;;;;;51.10;27.55;;;22.80;99.90;;;;;;4952498;28;20053;-73
2022/06/30 07:08:13;;;;;;;44.97;25.83;;;22.80;99.90;;;;;;4953465;28;20043;-76
2022/06/30 07:10:39;;;;;;;45.17;25.25;;;22.90;99.90;;;;;;4952554;28;20416;-76
2022/06/30 07:13:04;;;;;;;56.33;26.35;;;23.00;99.90;;;;;;4954407;28;20421;-73
2022/06/30 07:15:30;;;;;;;51.17;27.50;;;23.10;99.90;;;;;;4945793;29;20486;-74
2022/06/30 07:17:56;;;;;;;50.30;27.63;;;23.20;99.90;;;;;;4953013;28;20075;-74
2022/06/30 07:20:22;;;;;;;52.33;28.25;;;23.30;99.90;;;;;;4938906;29;20121;-74
2022/06/30 07:22:48;;;;;;;48.33;26.60;;;23.30;99.90;;;;;;4951027;28;20134;-74
2022/06/30 07:25:13;;;;;;;49.60;28.23;;;23.40;99.90;;;;;;4957850;28;20122;-73
2022/06/30 07:27:39;;;;;;;54.00;28.55;;;23.40;99.90;;;;;;4945484;28;20047;-74
2022/06/30 07:30:05;;;;;;;53.10;29.27;;;23.50;99.90;;;;;;4955139;28;20043;-74
2022/06/30 07:32:31;;;;;;;55.75;28.63;;;23.60;99.90;;;;;;4988964;28;20042;-75
2022/06/30 07:34:56;;;;;;;47.80;26.58;;;23.70;99.90;;;;;;4973690;28;20043;-76
2022/06/30 07:37:22;;;;;;;56.78;31.77;;;23.70;99.90;;;;;;4960631;28;20053;-73
2022/06/30 07:39:48;;;;;;;53.65;30.35;;;23.80;99.90;;;;;;4961970;28;20038;-74
2022/06/30 07:42:13;;;;;;;52.40;28.20;;;23.90;99.90;;;;;;4973535;28;20046;-74
2022/06/30 07:44:40;;;;;;;55.20;27.77;;;24.00;99.90;;;;;;4970165;28;20508;-76
2022/06/30 07:47:06;;;;;;;54.25;30.80;;;24.10;99.90;;;;;;4947621;29;20055;-74
2022/06/30 07:49:32;;;;;;;62.15;30.92;;;24.10;99.90;;;;;;4939046;29;20047;-73
2022/06/30 07:51:58;;;;;;;61.60;31.92;;;24.20;99.90;;;;;;4943827;28;20038;-74
2022/06/30 07:54:23;;;;;;;53.65;29.73;;;24.30;99.90;;;;;;4957641;28;20039;-73
2022/06/30 07:56:49;;;;;;;53.28;30.17;;;24.40;99.90;;;;;;4949427;29;20042;-73
2022/06/30 07:59:14;;;;;;;54.25;30.30;;;24.50;99.90;;;;;;4938811;29;20035;-74
2022/06/30 08:01:40;;;;;;;55.95;30.48;;;24.60;99.90;;;;;;4938564;29;20427;-73
2022/06/30 08:04:06;;;;;;;60.38;32.03;;;24.60;99.90;;;;;;4955459;28;20043;-74
2022/06/30 08:06:31;;;;;;;64.78;33.75;;;24.50;99.90;;;;;;4958257;28;20034;-73
2022/06/30 08:08:57;;;;;;;67.22;33.42;;;24.60;99.90;;;;;;4957448;28;20047;-73
2022/06/30 08:11:23;;;;;;;65.68;34.20;;;24.60;99.90;;;;;;4957675;28;20378;-73
2022/06/30 08:13:49;;;;;;;66.47;32.05;;;24.60;99.90;;;;;;4957827;28;20070;-74
2022/06/30 08:16:15;;;;;;;67.82;34.17;;;24.70;99.90;;;;;;4954234;28;20047;-72
2022/06/30 08:18:41;;;;;;;65.63;33.45;;;24.90;99.90;;;;;;4949461;28;20043;-73
2022/06/30 08:21:07;;;;;;;57.05;31.70;;;24.90;99.90;;;;;;4957361;28;20035;-73
2022/06/30 08:23:33;;;;;;;60.83;33.35;;;25.00;99.90;;;;;;4952884;28;20090;-73
2022/06/30 08:25:59;;;;;;;77.07;36.08;;;25.10;99.90;;;;;;4965482;28;20054;-73
2022/06/30 08:28:24;;;;;;;65.00;34.78;;;25.00;99.90;;;;;;4956288;28;20042;-74
2022/06/30 08:30:50;;;;;;;62.42;33.50;;;25.10;99.90;;;;;;4940458;28;20568;-74
2022/06/30 08:33:16;;;;;;;68.50;35.38;;;25.20;99.90;;;;;;4956073;28;20069;-75
2022/06/30 08:35:43;;;;;;;62.00;33.28;;;25.20;99.90;;;;;;4988343;28;20093;-74
2022/06/30 08:38:09;;;;;;;64.75;33.40;;;25.30;99.90;;;;;;4956901;28;20070;-73
2022/06/30 08:43:23;;;;;;;68.22;33.63;;;25.50;99.90;;;;;;4957132;28;20405;-74
2022/06/30 08:45:50;;;;;;;70.03;36.33;;;25.50;99.90;;;;;;4986868;28;20078;-73
2022/06/30 08:48:15;;;;;;;73.57;38.25;;;25.50;99.90;;;;;;4946339;28;20089;-73
2022/06/30 08:50:43;;;;;;;73.88;38.85;;;25.50;99.90;;;;;;4953827;28;20521;-73
2022/06/30 08:53:09;;;;;;;71.80;38.17;;;25.50;99.90;;;;;;4988910;28;20573;-74
2022/06/30 08:55:36;;;;;;;64.55;35.90;;;25.50;99.90;;;;;;4956650;28;20039;-73
2022/06/30 08:58:08;;;;;;;65.30;35.80;;;25.60;99.90;;;;;;4956168;28;20043;-72
2022/06/30 09:00:36;;;;;;;71.65;37.70;;;25.70;99.90;;;;;;4956510;28;20456;-74
2022/06/30 09:03:03;;;;;;;66.72;38.03;;;25.80;99.90;;;;;;4989121;28;20413;-74
2022/06/30 09:05:29;;;;;;;72.72;36.13;;;25.80;99.90;;;;;;4972345;28;20043;-73
2022/06/30 09:07:54;;;;;;;68.70;37.10;;;25.80;99.90;;;;;;4954739;28;20065;-73
2022/06/30 09:10:22;;;;;;;63.10;34.03;;;25.70;99.90;;;;;;4956907;28;20058;-73
2022/06/30 09:13:01;;;;;;;69.30;39.22;;;25.80;99.90;;;;;;4943326;29;20047;-73
2022/06/30 09:15:39;;;;;;;63.78;35.75;;;25.80;99.90;;;;;;4937385;29;20039;-75
2022/06/30 09:18:04;;;;;;;70.70;37.28;;;25.80;99.90;;;;;;4936626;29;20039;-74
2022/06/30 09:20:38;;;;;;;69.45;36.85;;;25.80;99.90;;;;;;4952987;28;20454;-73
2022/06/30 09:23:24;;;;;;;63.95;35.00;;;25.80;99.90;;;;;;4967899;28;20123;-73
2022/06/30 09:25:52;;;;;;;66.97;36.70;;;25.80;99.90;;;;;;4937357;29;20501;-73
2022/06/30 09:28:41;;;;;;;75.18;38.20;;;25.80;99.90;;;;;;4936015;29;20413;-73
2022/06/30 09:31:07;;;;;;;62.70;35.10;;;25.80;99.90;;;;;;4936861;29;20486;-73
2022/06/30 09:33:35;;;;;;;65.22;36.58;;;25.90;99.90;;;;;;4943135;28;20047;-73
2022/06/30 09:36:19;;;;;;;67.28;36.35;;;26.00;99.90;;;;;;4950949;28;20133;-74
2022/06/30 09:38:58;;;;;;;79.60;39.88;;;26.10;99.90;;;;;;4953645;28;20094;-74
2022/06/30 09:41:32;;;;;;;69.90;36.72;;;26.10;99.90;;;;;;4955497;28;20511;-73
2022/06/30 09:43:58;;;;;;;72.07;38.55;;;26.20;99.90;;;;;;4968907;28;20049;-74
2022/06/30 09:46:24;;;;;;;70.10;37.33;;;26.20;99.90;;;;;;4958360;28;20105;-74
2022/06/30 09:48:50;;;;;;;74.75;38.00;;;26.20;99.90;;;;;;4955579;28;20078;-72
2022/06/30 09:51:16;;;;;;;66.03;36.97;;;26.30;99.90;;;;;;4971357;28;20514;-70
2022/06/30 09:53:41;;;;;;;73.90;38.35;;;26.30;99.90;;;;;;4971286;28;20047;-71
2022/06/30 09:56:12;;;;;;;63.30;35.63;;;26.20;99.90;;;;;;4970586;28;20345;-73
2022/06/30 09:58:42;;;;;;;73.60;38.90;;;26.20;99.90;;;;;;4971240;28;20082;-71
2022/06/30 10:01:09;;;;;;;70.70;37.80;;;26.00;99.90;;;;;;4971115;28;20058;-74
2022/06/30 10:03:45;;;;;;;84.15;40.33;;;26.00;99.90;;;;;;4971507;28;20170;-73
2022/06/30 10:06:18;;;;;;;80.82;38.50;;;26.10;99.90;;;;;;4954559;28;20121;-73
2022/06/30 10:08:45;;;;;;;74.05;38.15;;;26.00;99.90;;;;;;4945357;29;20055;-74
2022/06/30 10:11:10;;;;;;;74.05;38.22;;;26.00;99.90;;;;;;4945698;28;20042;-69
2022/06/30 10:13:38;;;;;;;69.70;36.72;;;25.80;99.90;;;;;;4954747;28;20045;-71
2022/06/30 10:16:05;;;;;;;77.53;39.80;;;25.80;99.90;;;;;;4946756;29;20126;-73
2022/06/30 10:18:35;;;;;;;75.05;38.20;;;25.90;99.90;;;;;;4935171;29;20089;-70
2022/06/30 10:21:01;;;;;;;70.93;36.30;;;25.80;99.90;;;;;;4935794;28;20039;-73
2022/06/30 10:23:27;;;;;;;81.25;42.47;;;25.80;99.90;;;;;;4953495;28;20442;-72
2022/06/30 10:25:54;;;;;;;84.65;45.25;;;25.90;99.90;;;;;;4939079;28;20612;-75
2022/06/30 10:28:22;;;;;;;110.38;52.45;;;25.80;99.90;;;;;;4985721;28;20053;-74
2022/06/30 10:31:17;;;;;;;98.00;50.47;;;25.90;99.90;;;;;;4986844;28;20049;-73
2022/06/30 10:34:07;;;;;;;109.18;52.97;;;25.90;99.90;;;;;;4987170;28;20397;-76
2022/06/30 10:36:39;;;;;;;102.10;52.72;;;25.90;99.90;;;;;;4969747;28;20406;-74
2022/06/30 10:39:24;;;;;;;100.95;54.67;;;25.90;99.90;;;;;;4954611;28;20457;-71
2022/06/30 10:41:50;;;;;;;104.88;49.10;;;25.80;99.90;;;;;;4954099;28;20047;-71
2022/06/30 10:44:22;;;;;;;90.30;44.10;;;25.80;99.90;;;;;;4954167;28;20189;-73
2022/06/30 10:46:48;;;;;;;82.25;40.50;;;25.60;99.90;;;;;;4982478;28;20053;-73
2022/06/30 10:49:13;;;;;;;75.32;37.30;;;25.60;99.90;;;;;;4956750;28;20047;-70
2022/06/30 10:51:40;;;;;;;63.90;32.92;;;25.50;99.90;;;;;;4965530;28;20494;-68
2022/06/30 10:54:06;;;;;;;47.97;27.00;;;25.60;99.90;;;;;;4950311;28;20047;-69
2022/06/30 10:56:53;;;;;;;46.80;25.20;;;25.50;99.90;;;;;;4935365;29;20066;-69
2022/06/30 10:59:36;;;;;;;31.67;18.45;;;25.50;99.90;;;;;;4950463;28;20092;-70
2022/06/30 11:02:08;;;;;;;24.05;14.73;;;25.50;99.90;;;;;;4965155;28;20125;-70
2022/06/30 11:04:41;;;;;;;26.20;13.13;;;25.50;99.90;;;;;;4955971;28;20035;-72
2022/06/30 11:07:10;;;;;;;22.27;11.40;;;25.60;99.90;;;;;;4964079;28;20055;-72
2022/06/30 11:09:47;;;;;;;25.05;13.70;;;25.70;99.90;;;;;;4953649;28;20074;-70
2022/06/30 11:12:14;;;;;;;22.42;11.75;;;25.70;99.90;;;;;;4969374;28;20054;-73
2022/06/30 11:14:51;;;;;;;24.00;12.77;;;25.80;99.90;;;;;;4952153;28;20357;-74
2022/06/30 11:17:20;;;;;;;31.58;17.63;;;25.80;99.90;;;;;;4952647;28;20110;-74
2022/06/30 11:19:49;;;;;;;34.55;19.70;;;25.90;99.90;;;;;;4968300;28;20066;-72
2022/06/30 11:22:16;;;;;;;63.55;30.92;;;26.00;99.90;;;;;;4953059;28;20453;-73
2022/06/30 11:24:45;;;;;;;54.70;29.70;;;26.00;99.90;;;;;;4954369;28;20039;-75
2022/06/30 11:27:20;;;;;;;80.55;32.72;;;26.00;99.90;;;;;;4986359;28;20139;-75
2022/06/30 11:29:48;;;;;;;66.90;36.75;;;26.10;99.90;;;;;;4935784;29;20054;-72
2022/06/30 11:32:14;;;;;;;78.68;40.08;;;26.10;99.90;;;;;;4953679;28;20387;-72
2022/06/30 11:34:41;;;;;;;68.90;36.90;;;26.10;99.90;;;;;;4955129;28;20127;-73
2022/06/30 11:37:07;;;;;;;63.33;34.88;;;26.00;99.90;;;;;;4953277;28;20051;-71
2022/06/30 11:39:33;;;;;;;53.30;27.52;;;25.90;99.90;;;;;;4954804;28;20039;-72
2022/06/30 11:42:00;;;;;;;52.63;28.98;;;25.90;99.90;;;;;;4954971;28;20375;-76
2022/06/30 11:44:29;;;;;;;63.20;32.90;;;25.90;99.90;;;;;;4948152;29;20032;-72
2022/06/30 11:46:57;;;;;;;58.72;32.63;;;25.80;99.90;;;;;;4942837;28;20083;-74
2022/06/30 11:49:27;;;;;;;67.18;35.20;;;25.90;99.90;;;;;;4986661;28;20039;-73
2022/06/30 11:51:53;;;;;;;56.65;31.40;;;25.80;99.90;;;;;;4955596;28;20126;-74
2022/06/30 11:54:24;;;;;;;68.18;38.30;;;25.80;99.90;;;;;;4938395;28;20408;-73
2022/06/30 11:56:53;;;;;;;79.97;41.17;;;25.70;99.90;;;;;;4954186;28;20486;-74
2022/06/30 11:59:19;;;;;;;81.50;45.25;;;25.70;99.90;;;;;;4986722;28;20101;-73
2022/06/30 12:02:03;;;;;;;86.30;48.13;;;25.70;99.90;;;;;;4974212;28;20047;-75
2022/06/30 12:04:28;;;;;;;94.05;48.63;;;25.60;99.90;;;;;;4954016;28;20486;-74
2022/06/30 12:06:54;;;;;;;76.10;40.08;;;25.60;99.90;;;;;;4958093;28;20054;-71
2022/06/30 12:09:19;;;;;;;67.20;38.70;;;25.50;99.90;;;;;;4957227;28;20046;-73
2022/06/30 12:11:46;;;;;;;62.83;36.72;;;25.50;99.90;;;;;;4957970;28;20051;-72
2022/06/30 12:14:11;;;;;;;68.68;36.60;;;25.50;99.90;;;;;;4957797;28;20420;-73
2022/06/30 12:16:37;;;;;;;57.55;32.88;;;25.40;99.90;;;;;;4952086;28;20039;-69
2022/06/30 12:19:03;;;;;;;54.67;31.33;;;25.40;99.90;;;;;;4981142;28;20140;-72
2022/06/30 12:21:29;;;;;;;49.78;28.27;;;25.30;99.90;;;;;;4973704;28;20039;-69
2022/06/30 12:23:55;;;;;;;49.70;26.80;;;25.30;99.90;;;;;;4954680;28;20073;-74
2022/06/30 12:26:21;;;;;;;51.63;29.63;;;25.40;99.90;;;;;;4956846;28;20074;-70
2022/06/30 12:28:51;;;;;;;66.53;35.97;;;25.50;99.90;;;;;;4956273;28;20097;-69
2022/06/30 12:31:25;;;;;;;63.50;35.13;;;25.50;99.90;;;;;;4953224;28;20047;-69
2022/06/30 12:33:52;;;;;;;77.53;41.00;;;25.50;99.90;;;;;;4953718;28;20062;-71
2022/06/30 12:36:17;;;;;;;64.80;37.00;;;25.50;99.90;;;;;;4985059;28;20552;-72
2022/06/30 12:38:43;;;;;;;76.07;36.28;;;25.50;99.90;;;;;;4960621;28;20039;-69